Главная страница
METAR-TAF:

METAR-TAF

Аэропорты :

Ваттай

Вьентьян, Лаос

широта: 17-57N, долгота: 102-34E, высота над уровнем моря: 171 м

Текущие метеонаблюдения

Эта сводка был подготовлена 27 минут назад, в 10:00 UTC
Ветер 4 Узел от южный
Температура 27°C
Влажность 89%
Давление 1001 hPa
Видимость: 6000 м
Рассеянная облачность на высоте 1000 фута
Рассеянная облачность на высоте 8300 фута
Морось

METAR: VLVT 161000Z 18004KT 6000 DZ BKN010 BKN083 27/25 Q1001 NOSIG

Время: 17:27 (10:27 UTC)

Прогноз

Эта сводка был подготовлена 5 часа и 27 минут назад, в 05:00 UTC
Прогноз действительный с 16-го 06 UTC до 17-го 06 UTC
Ветер 4 Узел от северно-северо-западный
Видимость: 8000 м
Отдельные облака на высоте 1600 фута
Рассеянная облачность на высоте 8300 фута
временами
С 16-го 09 UTC до 16-го 12 UTC
Видимость: 5000 м
Отдельные облака на высоте 1600 фута
Рассеянная облачность на высоте 8300 фута
дождь

TAF: VLVT 160500Z 1606/1706 34004KT 8000 SCT016 BKN083 TEMPO 1609/1612 5000 RA SCT016 BKN083

Метеонаблюдения и прогнозы для более 4000 аэропортов (сводки METAR и TAF).

Имеющиеся станции представлены на карте желтыми и красными точками.

Чтобы увидеть название станции, наведите на нее мышь.

Затем щелкните, чтобы увидеть метеонаблюдения и метеопрогнозы.

Управление картой: чтобы увеличить масштаб, щелкните зеленые кнопки с черным крестиком; чтобы уменьшить масштаб, щелкните зеленую кнопку с тире; для просмотра соседних карт щелкайте зеленые стрелки.


METAR-TAF: